sensor_id;sensor_type;location;lat;lon;timestamp;temperature;humidity
24450;DHT22;13349;50.984;5.822;2023-02-19T00:00:15;10.10;99.90
24450;DHT22;13349;50.984;5.822;2023-02-19T00:02:43;10.10;99.90
24450;DHT22;13349;50.984;5.822;2023-02-19T00:05:13;10.00;99.90
24450;DHT22;13349;50.984;5.822;2023-02-19T00:07:40;10.00;99.90
24450;DHT22;13349;50.984;5.822;2023-02-19T00:10:08;10.00;99.90
24450;DHT22;13349;50.984;5.822;2023-02-19T00:12:35;10.10;99.90
24450;DHT22;13349;50.984;5.822;2023-02-19T00:15:03;10.00;99.90
24450;DHT22;13349;50.984;5.822;2023-02-19T00:17:31;10.10;99.90
24450;DHT22;13349;50.984;5.822;2023-02-19T00:19:58;10.00;99.90
24450;DHT22;13349;50.984;5.822;2023-02-19T00:22:26;10.00;99.90
24450;DHT22;13349;50.984;5.822;2023-02-19T00:24:53;10.10;99.90
24450;DHT22;13349;50.984;5.822;2023-02-19T00:27:20;10.10;99.90
24450;DHT22;13349;50.984;5.822;2023-02-19T00:29:47;10.10;99.90
24450;DHT22;13349;50.984;5.822;2023-02-19T00:32:15;10.10;99.90
24450;DHT22;13349;50.984;5.822;2023-02-19T00:34:43;10.10;99.90
24450;DHT22;13349;50.984;5.822;2023-02-19T00:37:11;10.00;99.90
24450;DHT22;13349;50.984;5.822;2023-02-19T00:39:38;10.10;99.90
24450;DHT22;13349;50.984;5.822;2023-02-19T00:42:05;10.00;99.90
24450;DHT22;13349;50.984;5.822;2023-02-19T00:44:32;10.10;99.90
24450;DHT22;13349;50.984;5.822;2023-02-19T00:46:59;10.10;99.90
24450;DHT22;13349;50.984;5.822;2023-02-19T00:49:27;10.10;99.90
24450;DHT22;13349;50.984;5.822;2023-02-19T00:51:55;10.10;99.90
24450;DHT22;13349;50.984;5.822;2023-02-19T00:54:23;10.10;99.90
24450;DHT22;13349;50.984;5.822;2023-02-19T00:56:51;10.10;99.90
24450;DHT22;13349;50.984;5.822;2023-02-19T00:59:18;10.10;99.90
24450;DHT22;13349;50.984;5.822;2023-02-19T01:01:45;10.10;99.90
24450;DHT22;13349;50.984;5.822;2023-02-19T01:04:14;10.10;99.90
24450;DHT22;13349;50.984;5.822;2023-02-19T01:06:41;10.10;99.90
24450;DHT22;13349;50.984;5.822;2023-02-19T01:09:10;10.10;99.90
24450;DHT22;13349;50.984;5.822;2023-02-19T01:11:38;10.10;99.90
24450;DHT22;13349;50.984;5.822;2023-02-19T01:14:05;10.10;99.90
24450;DHT22;13349;50.984;5.822;2023-02-19T01:16:32;10.10;99.90
24450;DHT22;13349;50.984;5.822;2023-02-19T01:19:00;10.10;99.90
24450;DHT22;13349;50.984;5.822;2023-02-19T01:21:28;10.10;99.90
24450;DHT22;13349;50.984;5.822;2023-02-19T01:23:57;10.20;99.90
24450;DHT22;13349;50.984;5.822;2023-02-19T01:26:28;10.20;99.90
24450;DHT22;13349;50.984;5.822;2023-02-19T01:28:55;10.10;99.90
24450;DHT22;13349;50.984;5.822;2023-02-19T01:31:23;10.10;99.90
24450;DHT22;13349;50.984;5.822;2023-02-19T01:33:52;10.10;99.90
24450;DHT22;13349;50.984;5.822;2023-02-19T01:36:19;10.10;99.90
24450;DHT22;13349;50.984;5.822;2023-02-19T01:38:47;10.10;99.90
24450;DHT22;13349;50.984;5.822;2023-02-19T01:41:16;10.10;99.90
24450;DHT22;13349;50.984;5.822;2023-02-19T01:44:01;10.10;99.90
24450;DHT22;13349;50.984;5.822;2023-02-19T01:46:29;10.10;99.90
24450;DHT22;13349;50.984;5.822;2023-02-19T01:49:00;10.10;99.90
24450;DHT22;13349;50.984;5.822;2023-02-19T01:51:30;10.10;99.90
24450;DHT22;13349;50.984;5.822;2023-02-19T01:54:01;10.10;99.90
24450;DHT22;13349;50.984;5.822;2023-02-19T01:56:30;10.10;99.90
24450;DHT22;13349;50.984;5.822;2023-02-19T01:59:01;10.10;99.90
24450;DHT22;13349;50.984;5.822;2023-02-19T02:01:28;10.10;99.90
24450;DHT22;13349;50.984;5.822;2023-02-19T02:03:55;10.10;99.90
24450;DHT22;13349;50.984;5.822;2023-02-19T02:06:24;10.10;99.90
24450;DHT22;13349;50.984;5.822;2023-02-19T02:08:55;10.10;99.90
24450;DHT22;13349;50.984;5.822;2023-02-19T02:11:43;10.10;99.90
24450;DHT22;13349;50.984;5.822;2023-02-19T02:14:12;10.10;99.90
24450;DHT22;13349;50.984;5.822;2023-02-19T02:16:48;10.10;99.90
24450;DHT22;13349;50.984;5.822;2023-02-19T02:19:30;10.10;99.90
24450;DHT22;13349;50.984;5.822;2023-02-19T02:22:06;10.10;99.90
24450;DHT22;13349;50.984;5.822;2023-02-19T02:27:55;10.10;99.90
24450;DHT22;13349;50.984;5.822;2023-02-19T02:30:32;10.10;99.90
24450;DHT22;13349;50.984;5.822;2023-02-19T02:33:06;10.10;99.90
24450;DHT22;13349;50.984;5.822;2023-02-19T02:35:41;10.10;99.90
24450;DHT22;13349;50.984;5.822;2023-02-19T02:38:10;10.00;99.90
24450;DHT22;13349;50.984;5.822;2023-02-19T02:40:40;10.10;99.90
24450;DHT22;13349;50.984;5.822;2023-02-19T02:43:08;10.00;99.90
24450;DHT22;13349;50.984;5.822;2023-02-19T02:45:37;10.10;99.90
24450;DHT22;13349;50.984;5.822;2023-02-19T02:48:20;10.10;99.90
24450;DHT22;13349;50.984;5.822;2023-02-19T02:50:51;10.10;99.90
24450;DHT22;13349;50.984;5.822;2023-02-19T02:53:22;10.00;99.90
24450;DHT22;13349;50.984;5.822;2023-02-19T02:56:09;10.00;99.90
24450;DHT22;13349;50.984;5.822;2023-02-19T02:58:38;10.00;99.90
24450;DHT22;13349;50.984;5.822;2023-02-19T03:01:09;10.00;99.90
24450;DHT22;13349;50.984;5.822;2023-02-19T03:03:57;10.00;99.90
24450;DHT22;13349;50.984;5.822;2023-02-19T03:06:28;10.00;99.90
24450;DHT22;13349;50.984;5.822;2023-02-19T03:08:59;10.10;99.90
24450;DHT22;13349;50.984;5.822;2023-02-19T03:11:30;10.00;99.90
24450;DHT22;13349;50.984;5.822;2023-02-19T03:14:18;10.00;99.90
24450;DHT22;13349;50.984;5.822;2023-02-19T03:17:09;10.00;99.90
24450;DHT22;13349;50.984;5.822;2023-02-19T03:20:09;10.00;99.90
24450;DHT22;13349;50.984;5.822;2023-02-19T03:22:40;10.00;99.90
24450;DHT22;13349;50.984;5.822;2023-02-19T03:25:11;10.00;99.90
24450;DHT22;13349;50.984;5.822;2023-02-19T03:27:59;10.00;99.90
24450;DHT22;13349;50.984;5.822;2023-02-19T03:30:29;10.00;99.90
24450;DHT22;13349;50.984;5.822;2023-02-19T03:33:00;10.00;99.90
24450;DHT22;13349;50.984;5.822;2023-02-19T03:35:35;10.00;99.90
24450;DHT22;13349;50.984;5.822;2023-02-19T03:38:08;10.00;99.90
24450;DHT22;13349;50.984;5.822;2023-02-19T03:40:40;9.90;99.90
24450;DHT22;13349;50.984;5.822;2023-02-19T03:43:16;9.90;99.90
24450;DHT22;13349;50.984;5.822;2023-02-19T03:45:51;10.00;99.90
24450;DHT22;13349;50.984;5.822;2023-02-19T03:48:29;10.00;99.90
24450;DHT22;13349;50.984;5.822;2023-02-19T03:51:11;10.00;99.90
24450;DHT22;13349;50.984;5.822;2023-02-19T03:53:49;10.00;99.90
24450;DHT22;13349;50.984;5.822;2023-02-19T03:56:25;10.10;99.90
24450;DHT22;13349;50.984;5.822;2023-02-19T03:58:57;10.00;99.90
24450;DHT22;13349;50.984;5.822;2023-02-19T04:01:30;10.00;99.90
24450;DHT22;13349;50.984;5.822;2023-02-19T04:04:05;10.00;99.90
24450;DHT22;13349;50.984;5.822;2023-02-19T04:06:35;10.10;99.90
24450;DHT22;13349;50.984;5.822;2023-02-19T04:09:06;10.00;99.90
24450;DHT22;13349;50.984;5.822;2023-02-19T04:11:36;10.00;99.90
24450;DHT22;13349;50.984;5.822;2023-02-19T04:14:08;10.00;99.90
24450;DHT22;13349;50.984;5.822;2023-02-19T04:16:40;10.00;99.90
24450;DHT22;13349;50.984;5.822;2023-02-19T04:19:11;10.00;99.90
24450;DHT22;13349;50.984;5.822;2023-02-19T04:21:40;10.00;99.90
24450;DHT22;13349;50.984;5.822;2023-02-19T04:24:11;10.00;99.90
24450;DHT22;13349;50.984;5.822;2023-02-19T04:26:39;10.00;99.90
24450;DHT22;13349;50.984;5.822;2023-02-19T04:29:07;10.00;99.90
24450;DHT22;13349;50.984;5.822;2023-02-19T04:31:34;9.90;99.90
24450;DHT22;13349;50.984;5.822;2023-02-19T04:34:02;9.90;99.90
24450;DHT22;13349;50.984;5.822;2023-02-19T04:36:31;10.00;99.90
24450;DHT22;13349;50.984;5.822;2023-02-19T04:38:59;10.00;99.90
24450;DHT22;13349;50.984;5.822;2023-02-19T04:41:26;9.90;99.90
24450;DHT22;13349;50.984;5.822;2023-02-19T04:43:53;10.00;99.90
24450;DHT22;13349;50.984;5.822;2023-02-19T04:46:21;10.00;99.90
24450;DHT22;13349;50.984;5.822;2023-02-19T04:48:48;10.00;99.90
24450;DHT22;13349;50.984;5.822;2023-02-19T04:51:15;10.00;99.90
24450;DHT22;13349;50.984;5.822;2023-02-19T04:53:44;10.00;99.90
24450;DHT22;13349;50.984;5.822;2023-02-19T04:56:13;10.00;99.90
24450;DHT22;13349;50.984;5.822;2023-02-19T04:58:41;9.90;99.90
24450;DHT22;13349;50.984;5.822;2023-02-19T05:01:09;9.70;99.90
24450;DHT22;13349;50.984;5.822;2023-02-19T05:03:36;9.70;99.90
24450;DHT22;13349;50.984;5.822;2023-02-19T05:06:05;9.70;99.90
24450;DHT22;13349;50.984;5.822;2023-02-19T05:08:32;9.60;99.90
24450;DHT22;13349;50.984;5.822;2023-02-19T05:11:02;9.60;99.90
24450;DHT22;13349;50.984;5.822;2023-02-19T05:13:30;9.50;99.90
24450;DHT22;13349;50.984;5.822;2023-02-19T05:15:59;9.50;99.90
24450;DHT22;13349;50.984;5.822;2023-02-19T05:18:28;9.60;99.90
24450;DHT22;13349;50.984;5.822;2023-02-19T05:20:56;9.60;99.90
24450;DHT22;13349;50.984;5.822;2023-02-19T05:23:24;9.50;99.90
24450;DHT22;13349;50.984;5.822;2023-02-19T05:25:52;9.60;99.90
24450;DHT22;13349;50.984;5.822;2023-02-19T05:28:21;9.60;99.90
24450;DHT22;13349;50.984;5.822;2023-02-19T05:30:54;9.60;99.90
24450;DHT22;13349;50.984;5.822;2023-02-19T05:33:24;9.60;99.90
24450;DHT22;13349;50.984;5.822;2023-02-19T05:35:53;9.60;99.90
24450;DHT22;13349;50.984;5.822;2023-02-19T05:38:22;9.70;99.90
24450;DHT22;13349;50.984;5.822;2023-02-19T05:40:49;9.70;99.90
24450;DHT22;13349;50.984;5.822;2023-02-19T05:43:17;9.70;99.90
24450;DHT22;13349;50.984;5.822;2023-02-19T05:45:46;9.70;99.90
24450;DHT22;13349;50.984;5.822;2023-02-19T05:48:13;9.70;99.90
24450;DHT22;13349;50.984;5.822;2023-02-19T05:50:40;9.70;99.90
24450;DHT22;13349;50.984;5.822;2023-02-19T05:53:08;9.60;99.90
24450;DHT22;13349;50.984;5.822;2023-02-19T05:55:36;9.60;99.90
24450;DHT22;13349;50.984;5.822;2023-02-19T05:58:03;9.60;99.90
24450;DHT22;13349;50.984;5.822;2023-02-19T06:00:31;9.60;99.90
24450;DHT22;13349;50.984;5.822;2023-02-19T06:03:01;9.60;99.90
24450;DHT22;13349;50.984;5.822;2023-02-19T06:05:28;9.60;99.90
24450;DHT22;13349;50.984;5.822;2023-02-19T06:07:55;9.60;99.90
24450;DHT22;13349;50.984;5.822;2023-02-19T06:10:22;9.60;99.90
24450;DHT22;13349;50.984;5.822;2023-02-19T06:12:52;9.60;99.90
24450;DHT22;13349;50.984;5.822;2023-02-19T06:15:19;9.60;99.90
24450;DHT22;13349;50.984;5.822;2023-02-19T06:17:46;9.70;99.90
24450;DHT22;13349;50.984;5.822;2023-02-19T06:20:18;9.70;99.90
24450;DHT22;13349;50.984;5.822;2023-02-19T06:22:46;9.70;99.90
24450;DHT22;13349;50.984;5.822;2023-02-19T06:25:15;9.70;99.90
24450;DHT22;13349;50.984;5.822;2023-02-19T06:27:43;9.70;99.90
24450;DHT22;13349;50.984;5.822;2023-02-19T06:30:11;9.70;99.90
24450;DHT22;13349;50.984;5.822;2023-02-19T06:32:38;9.60;99.90
24450;DHT22;13349;50.984;5.822;2023-02-19T06:35:06;9.60;99.90
24450;DHT22;13349;50.984;5.822;2023-02-19T06:37:34;9.60;99.90
24450;DHT22;13349;50.984;5.822;2023-02-19T06:40:02;9.50;99.90
24450;DHT22;13349;50.984;5.822;2023-02-19T06:42:30;9.50;99.90
24450;DHT22;13349;50.984;5.822;2023-02-19T06:44:58;9.50;99.90
24450;DHT22;13349;50.984;5.822;2023-02-19T06:47:25;9.60;99.90
24450;DHT22;13349;50.984;5.822;2023-02-19T06:49:52;9.60;99.90
24450;DHT22;13349;50.984;5.822;2023-02-19T06:52:19;9.60;99.90
24450;DHT22;13349;50.984;5.822;2023-02-19T06:54:48;9.60;99.90
24450;DHT22;13349;50.984;5.822;2023-02-19T06:57:15;9.60;99.90
24450;DHT22;13349;50.984;5.822;2023-02-19T06:59:43;9.60;99.90
24450;DHT22;13349;50.984;5.822;2023-02-19T07:02:11;9.60;99.90
24450;DHT22;13349;50.984;5.822;2023-02-19T07:04:38;9.60;99.90
24450;DHT22;13349;50.984;5.822;2023-02-19T07:07:05;9.60;99.90
24450;DHT22;13349;50.984;5.822;2023-02-19T07:09:32;9.60;99.90
24450;DHT22;13349;50.984;5.822;2023-02-19T07:12:01;9.60;99.90
24450;DHT22;13349;50.984;5.822;2023-02-19T07:14:28;9.60;99.90
24450;DHT22;13349;50.984;5.822;2023-02-19T07:16:55;9.60;99.90
24450;DHT22;13349;50.984;5.822;2023-02-19T07:19:22;9.60;99.90
24450;DHT22;13349;50.984;5.822;2023-02-19T07:21:49;9.60;99.90
24450;DHT22;13349;50.984;5.822;2023-02-19T07:24:17;9.60;99.90
24450;DHT22;13349;50.984;5.822;2023-02-19T07:26:46;9.60;99.90
24450;DHT22;13349;50.984;5.822;2023-02-19T07:29:14;9.70;99.90
24450;DHT22;13349;50.984;5.822;2023-02-19T07:31:42;9.70;99.90
24450;DHT22;13349;50.984;5.822;2023-02-19T07:34:09;9.70;99.90
24450;DHT22;13349;50.984;5.822;2023-02-19T07:36:36;9.70;99.90
24450;DHT22;13349;50.984;5.822;2023-02-19T07:39:03;9.70;99.90
24450;DHT22;13349;50.984;5.822;2023-02-19T07:41:31;9.70;99.90
24450;DHT22;13349;50.984;5.822;2023-02-19T07:43:58;9.70;99.90
24450;DHT22;13349;50.984;5.822;2023-02-19T07:46:26;9.80;99.90
24450;DHT22;13349;50.984;5.822;2023-02-19T07:48:54;9.80;99.90
24450;DHT22;13349;50.984;5.822;2023-02-19T07:51:22;9.80;99.90
24450;DHT22;13349;50.984;5.822;2023-02-19T07:53:49;9.80;99.90
24450;DHT22;13349;50.984;5.822;2023-02-19T07:56:17;9.80;99.90
24450;DHT22;13349;50.984;5.822;2023-02-19T07:58:44;9.90;99.90
24450;DHT22;13349;50.984;5.822;2023-02-19T08:01:14;9.90;99.90
24450;DHT22;13349;50.984;5.822;2023-02-19T08:03:43;9.90;99.90
24450;DHT22;13349;50.984;5.822;2023-02-19T08:06:10;9.90;99.90
24450;DHT22;13349;50.984;5.822;2023-02-19T08:08:38;9.90;99.90
24450;DHT22;13349;50.984;5.822;2023-02-19T08:11:06;9.90;99.90
24450;DHT22;13349;50.984;5.822;2023-02-19T08:13:51;9.90;99.90
24450;DHT22;13349;50.984;5.822;2023-02-19T08:16:20;9.90;99.90
24450;DHT22;13349;50.984;5.822;2023-02-19T08:18:50;9.90;99.90
24450;DHT22;13349;50.984;5.822;2023-02-19T08:21:17;10.00;99.90
24450;DHT22;13349;50.984;5.822;2023-02-19T08:23:45;10.00;99.90
24450;DHT22;13349;50.984;5.822;2023-02-19T08:26:12;10.10;99.90
24450;DHT22;13349;50.984;5.822;2023-02-19T08:28:39;10.20;99.90
24450;DHT22;13349;50.984;5.822;2023-02-19T08:31:09;10.30;99.90
24450;DHT22;13349;50.984;5.822;2023-02-19T08:33:37;10.30;99.90
24450;DHT22;13349;50.984;5.822;2023-02-19T08:36:08;10.20;99.90
24450;DHT22;13349;50.984;5.822;2023-02-19T08:38:36;10.10;99.90
24450;DHT22;13349;50.984;5.822;2023-02-19T08:41:04;9.90;99.90
24450;DHT22;13349;50.984;5.822;2023-02-19T08:43:32;9.70;99.90
24450;DHT22;13349;50.984;5.822;2023-02-19T08:45:59;9.50;99.90
24450;DHT22;13349;50.984;5.822;2023-02-19T08:48:27;9.40;99.90
24450;DHT22;13349;50.984;5.822;2023-02-19T08:50:55;9.30;99.90
24450;DHT22;13349;50.984;5.822;2023-02-19T08:53:25;9.20;99.90
24450;DHT22;13349;50.984;5.822;2023-02-19T08:55:52;9.20;99.90
24450;DHT22;13349;50.984;5.822;2023-02-19T08:58:20;9.30;99.90
24450;DHT22;13349;50.984;5.822;2023-02-19T09:00:47;9.30;99.90
24450;DHT22;13349;50.984;5.822;2023-02-19T09:03:15;9.30;99.90
24450;DHT22;13349;50.984;5.822;2023-02-19T09:05:42;9.30;99.90
24450;DHT22;13349;50.984;5.822;2023-02-19T09:08:11;9.40;99.90
24450;DHT22;13349;50.984;5.822;2023-02-19T09:10:40;9.50;99.90
24450;DHT22;13349;50.984;5.822;2023-02-19T09:13:07;9.50;99.90
24450;DHT22;13349;50.984;5.822;2023-02-19T09:15:36;9.50;99.90
24450;DHT22;13349;50.984;5.822;2023-02-19T09:18:04;9.60;99.90
24450;DHT22;13349;50.984;5.822;2023-02-19T09:20:31;9.50;99.90
24450;DHT22;13349;50.984;5.822;2023-02-19T09:22:59;9.60;99.90
24450;DHT22;13349;50.984;5.822;2023-02-19T09:25:26;9.60;99.90
24450;DHT22;13349;50.984;5.822;2023-02-19T09:27:56;9.60;99.90
24450;DHT22;13349;50.984;5.822;2023-02-19T09:30:23;9.50;99.90
24450;DHT22;13349;50.984;5.822;2023-02-19T09:32:50;9.50;99.90
24450;DHT22;13349;50.984;5.822;2023-02-19T09:35:18;9.50;99.90
24450;DHT22;13349;50.984;5.822;2023-02-19T09:37:45;9.60;99.90
24450;DHT22;13349;50.984;5.822;2023-02-19T09:40:12;9.80;99.90
24450;DHT22;13349;50.984;5.822;2023-02-19T09:42:47;9.80;99.90
24450;DHT22;13349;50.984;5.822;2023-02-19T09:45:19;9.70;99.90
24450;DHT22;13349;50.984;5.822;2023-02-19T09:47:48;9.80;99.90
24450;DHT22;13349;50.984;5.822;2023-02-19T09:50:18;9.90;99.90
24450;DHT22;13349;50.984;5.822;2023-02-19T09:52:50;10.00;99.90
24450;DHT22;13349;50.984;5.822;2023-02-19T09:55:26;10.00;99.90
24450;DHT22;13349;50.984;5.822;2023-02-19T09:57:55;9.90;99.90
24450;DHT22;13349;50.984;5.822;2023-02-19T10:00:28;10.00;99.90
24450;DHT22;13349;50.984;5.822;2023-02-19T10:03:02;10.30;99.90
24450;DHT22;13349;50.984;5.822;2023-02-19T10:05:31;10.70;99.90
24450;DHT22;13349;50.984;5.822;2023-02-19T10:07:58;10.60;99.90
24450;DHT22;13349;50.984;5.822;2023-02-19T10:10:29;10.60;99.90
24450;DHT22;13349;50.984;5.822;2023-02-19T10:13:10;10.60;99.90
24450;DHT22;13349;50.984;5.822;2023-02-19T10:15:44;10.70;99.90
24450;DHT22;13349;50.984;5.822;2023-02-19T10:18:16;11.10;99.90
24450;DHT22;13349;50.984;5.822;2023-02-19T10:20:44;11.20;99.90
24450;DHT22;13349;50.984;5.822;2023-02-19T10:23:14;11.00;99.90
24450;DHT22;13349;50.984;5.822;2023-02-19T10:25:45;10.80;99.90
24450;DHT22;13349;50.984;5.822;2023-02-19T10:28:15;10.50;99.90
24450;DHT22;13349;50.984;5.822;2023-02-19T10:30:49;10.20;99.90
24450;DHT22;13349;50.984;5.822;2023-02-19T10:33:16;9.90;99.90
24450;DHT22;13349;50.984;5.822;2023-02-19T10:35:53;9.80;99.90
24450;DHT22;13349;50.984;5.822;2023-02-19T10:38:22;9.70;99.90
24450;DHT22;13349;50.984;5.822;2023-02-19T10:40:57;9.60;99.90
24450;DHT22;13349;50.984;5.822;2023-02-19T10:43:27;9.60;99.90
24450;DHT22;13349;50.984;5.822;2023-02-19T10:46:02;9.60;99.90
24450;DHT22;13349;50.984;5.822;2023-02-19T10:48:34;9.70;99.90
24450;DHT22;13349;50.984;5.822;2023-02-19T10:51:05;9.90;99.90
24450;DHT22;13349;50.984;5.822;2023-02-19T10:53:42;10.10;99.90
24450;DHT22;13349;50.984;5.822;2023-02-19T10:56:13;10.30;99.90
24450;DHT22;13349;50.984;5.822;2023-02-19T10:58:40;10.10;99.90
24450;DHT22;13349;50.984;5.822;2023-02-19T11:01:14;10.00;99.90
24450;DHT22;13349;50.984;5.822;2023-02-19T11:03:43;9.90;99.90
24450;DHT22;13349;50.984;5.822;2023-02-19T11:06:13;9.90;99.90
24450;DHT22;13349;50.984;5.822;2023-02-19T11:08:50;9.90;99.90
24450;DHT22;13349;50.984;5.822;2023-02-19T11:11:27;9.90;99.90
24450;DHT22;13349;50.984;5.822;2023-02-19T11:13:57;10.00;99.90
24450;DHT22;13349;50.984;5.822;2023-02-19T11:16:39;10.00;99.90
24450;DHT22;13349;50.984;5.822;2023-02-19T11:19:22;10.10;99.90
24450;DHT22;13349;50.984;5.822;2023-02-19T11:21:51;10.40;99.90
24450;DHT22;13349;50.984;5.822;2023-02-19T11:24:27;10.60;99.90
24450;DHT22;13349;50.984;5.822;2023-02-19T11:26:57;10.70;99.90
24450;DHT22;13349;50.984;5.822;2023-02-19T11:29:24;10.70;99.90
24450;DHT22;13349;50.984;5.822;2023-02-19T11:31:55;10.60;99.90
24450;DHT22;13349;50.984;5.822;2023-02-19T11:34:26;10.40;99.90
24450;DHT22;13349;50.984;5.822;2023-02-19T11:37:07;10.30;99.90
24450;DHT22;13349;50.984;5.822;2023-02-19T11:39:35;10.30;99.90
24450;DHT22;13349;50.984;5.822;2023-02-19T11:42:23;10.20;99.90
24450;DHT22;13349;50.984;5.822;2023-02-19T11:45:15;10.10;99.90
24450;DHT22;13349;50.984;5.822;2023-02-19T11:48:19;9.90;99.90
24450;DHT22;13349;50.984;5.822;2023-02-19T11:51:02;9.70;99.90
24450;DHT22;13349;50.984;5.822;2023-02-19T11:53:32;9.60;99.90
24450;DHT22;13349;50.984;5.822;2023-02-19T11:56:14;9.50;99.90
24450;DHT22;13349;50.984;5.822;2023-02-19T11:59:02;9.40;99.90
24450;DHT22;13349;50.984;5.822;2023-02-19T12:02:20;9.40;99.90
24450;DHT22;13349;50.984;5.822;2023-02-19T12:05:25;9.30;99.90
24450;DHT22;13349;50.984;5.822;2023-02-19T12:08:19;9.30;99.90
24450;DHT22;13349;50.984;5.822;2023-02-19T12:11:23;9.30;99.90
24450;DHT22;13349;50.984;5.822;2023-02-19T12:14:10;9.40;99.90
24450;DHT22;13349;50.984;5.822;2023-02-19T12:16:45;9.60;99.90
24450;DHT22;13349;50.984;5.822;2023-02-19T12:19:39;9.70;99.90
24450;DHT22;13349;50.984;5.822;2023-02-19T12:22:20;9.70;99.90
24450;DHT22;13349;50.984;5.822;2023-02-19T12:27:54;9.80;99.90
24450;DHT22;13349;50.984;5.822;2023-02-19T12:30:40;9.80;99.90
24450;DHT22;13349;50.984;5.822;2023-02-19T12:33:27;9.80;99.90
24450;DHT22;13349;50.984;5.822;2023-02-19T12:36:03;9.70;99.90
24450;DHT22;13349;50.984;5.822;2023-02-19T12:38:42;9.80;99.90
24450;DHT22;13349;50.984;5.822;2023-02-19T12:41:23;9.80;99.90
24450;DHT22;13349;50.984;5.822;2023-02-19T12:43:57;9.70;99.90
24450;DHT22;13349;50.984;5.822;2023-02-19T12:46:30;9.70;99.90
24450;DHT22;13349;50.984;5.822;2023-02-19T12:49:02;9.80;99.90
24450;DHT22;13349;50.984;5.822;2023-02-19T12:51:38;9.70;99.90
24450;DHT22;13349;50.984;5.822;2023-02-19T12:54:13;9.60;99.90
24450;DHT22;13349;50.984;5.822;2023-02-19T12:56:46;9.60;99.90
24450;DHT22;13349;50.984;5.822;2023-02-19T12:59:19;9.50;99.90
24450;DHT22;13349;50.984;5.822;2023-02-19T13:01:51;9.50;99.90
24450;DHT22;13349;50.984;5.822;2023-02-19T13:04:24;9.60;99.90
24450;DHT22;13349;50.984;5.822;2023-02-19T13:06:55;9.70;99.90
24450;DHT22;13349;50.984;5.822;2023-02-19T13:09:29;9.70;99.90
24450;DHT22;13349;50.984;5.822;2023-02-19T13:12:02;9.80;99.90
24450;DHT22;13349;50.984;5.822;2023-02-19T13:14:33;9.80;99.90
24450;DHT22;13349;50.984;5.822;2023-02-19T13:17:07;9.70;99.90
24450;DHT22;13349;50.984;5.822;2023-02-19T13:19:42;9.70;99.90
24450;DHT22;13349;50.984;5.822;2023-02-19T13:22:17;9.80;99.90
24450;DHT22;13349;50.984;5.822;2023-02-19T13:25:05;9.70;99.90
24450;DHT22;13349;50.984;5.822;2023-02-19T13:27:46;9.70;99.90
24450;DHT22;13349;50.984;5.822;2023-02-19T13:30:31;9.70;99.90
24450;DHT22;13349;50.984;5.822;2023-02-19T13:33:04;9.70;99.90
24450;DHT22;13349;50.984;5.822;2023-02-19T13:36:02;9.80;99.90
24450;DHT22;13349;50.984;5.822;2023-02-19T13:38:35;9.90;99.90
24450;DHT22;13349;50.984;5.822;2023-02-19T13:41:05;9.90;99.90
24450;DHT22;13349;50.984;5.822;2023-02-19T13:43:34;9.90;99.90
24450;DHT22;13349;50.984;5.822;2023-02-19T13:46:06;10.00;99.90
24450;DHT22;13349;50.984;5.822;2023-02-19T13:48:35;10.00;99.90
24450;DHT22;13349;50.984;5.822;2023-02-19T13:51:38;10.00;99.90
24450;DHT22;13349;50.984;5.822;2023-02-19T13:54:20;10.00;99.90
24450;DHT22;13349;50.984;5.822;2023-02-19T13:56:49;10.00;99.90
24450;DHT22;13349;50.984;5.822;2023-02-19T13:59:38;10.00;99.90
24450;DHT22;13349;50.984;5.822;2023-02-19T14:02:10;10.00;99.90
24450;DHT22;13349;50.984;5.822;2023-02-19T14:04:52;10.00;99.90
24450;DHT22;13349;50.984;5.822;2023-02-19T14:07:50;10.00;99.90
24450;DHT22;13349;50.984;5.822;2023-02-19T14:16:55;9.80;99.90
24450;DHT22;13349;50.984;5.822;2023-02-19T14:19:48;9.80;99.90
24450;DHT22;13349;50.984;5.822;2023-02-19T14:22:47;9.80;99.90
24450;DHT22;13349;50.984;5.822;2023-02-19T14:25:35;9.80;99.90
24450;DHT22;13349;50.984;5.822;2023-02-19T14:28:13;9.80;99.90
24450;DHT22;13349;50.984;5.822;2023-02-19T14:30:47;9.80;99.90
24450;DHT22;13349;50.984;5.822;2023-02-19T14:33:18;9.90;99.90
24450;DHT22;13349;50.984;5.822;2023-02-19T14:35:52;9.90;99.90
24450;DHT22;13349;50.984;5.822;2023-02-19T14:38:22;9.90;99.90
24450;DHT22;13349;50.984;5.822;2023-02-19T14:40:51;9.90;99.90
24450;DHT22;13349;50.984;5.822;2023-02-19T14:43:21;9.90;99.90
24450;DHT22;13349;50.984;5.822;2023-02-19T14:45:53;9.90;99.90
24450;DHT22;13349;50.984;5.822;2023-02-19T14:48:27;9.90;99.90
24450;DHT22;13349;50.984;5.822;2023-02-19T14:51:02;9.80;99.90
24450;DHT22;13349;50.984;5.822;2023-02-19T14:53:33;9.80;99.90
24450;DHT22;13349;50.984;5.822;2023-02-19T14:56:04;9.80;99.90
24450;DHT22;13349;50.984;5.822;2023-02-19T14:58:32;9.80;99.90
24450;DHT22;13349;50.984;5.822;2023-02-19T15:01:01;9.80;99.90
24450;DHT22;13349;50.984;5.822;2023-02-19T15:03:33;9.70;99.90
24450;DHT22;13349;50.984;5.822;2023-02-19T15:06:04;9.60;99.90
24450;DHT22;13349;50.984;5.822;2023-02-19T15:08:35;9.50;99.90
24450;DHT22;13349;50.984;5.822;2023-02-19T15:11:08;9.50;99.90
24450;DHT22;13349;50.984;5.822;2023-02-19T15:13:36;9.50;99.90
24450;DHT22;13349;50.984;5.822;2023-02-19T15:16:14;9.40;99.90
24450;DHT22;13349;50.984;5.822;2023-02-19T15:18:45;9.50;99.90
24450;DHT22;13349;50.984;5.822;2023-02-19T15:21:21;9.50;99.90
24450;DHT22;13349;50.984;5.822;2023-02-19T15:23:50;9.60;99.90
24450;DHT22;13349;50.984;5.822;2023-02-19T15:26:21;9.60;99.90
24450;DHT22;13349;50.984;5.822;2023-02-19T15:28:57;9.60;99.90
24450;DHT22;13349;50.984;5.822;2023-02-19T15:31:25;9.60;99.90
24450;DHT22;13349;50.984;5.822;2023-02-19T15:33:53;9.60;99.90
24450;DHT22;13349;50.984;5.822;2023-02-19T15:36:26;9.60;99.90
24450;DHT22;13349;50.984;5.822;2023-02-19T15:38:57;9.60;99.90
24450;DHT22;13349;50.984;5.822;2023-02-19T15:41:27;9.60;99.90
24450;DHT22;13349;50.984;5.822;2023-02-19T15:44:06;9.60;99.90
24450;DHT22;13349;50.984;5.822;2023-02-19T15:46:36;9.50;99.90
24450;DHT22;13349;50.984;5.822;2023-02-19T15:49:08;9.60;99.90
24450;DHT22;13349;50.984;5.822;2023-02-19T15:51:42;9.60;99.90
24450;DHT22;13349;50.984;5.822;2023-02-19T15:54:19;9.60;88.00
24450;DHT22;13349;50.984;5.822;2023-02-19T15:56:49;9.60;18.40
24450;DHT22;13349;50.984;5.822;2023-02-19T15:59:23;9.60;1.00
24450;DHT22;13349;50.984;5.822;2023-02-19T16:01:53;9.60;1.00
24450;DHT22;13349;50.984;5.822;2023-02-19T16:04:22;9.60;1.00
24450;DHT22;13349;50.984;5.822;2023-02-19T16:06:53;9.60;1.00
24450;DHT22;13349;50.984;5.822;2023-02-19T16:09:23;9.50;1.00
24450;DHT22;13349;50.984;5.822;2023-02-19T16:11:55;9.60;18.10
24450;DHT22;13349;50.984;5.822;2023-02-19T16:14:27;9.50;1.00
24450;DHT22;13349;50.984;5.822;2023-02-19T16:16:56;9.50;1.00
24450;DHT22;13349;50.984;5.822;2023-02-19T16:19:27;9.50;99.90
24450;DHT22;13349;50.984;5.822;2023-02-19T16:21:55;9.40;99.90